sensor_id;sensor_type;location;lat;lon;timestamp;P1;durP1;ratioP1;P2;durP2;ratioP2
25237;SDS011;13185;50.872;5.306;2023-07-20T00:01:44;3.63;;;2.50;;
25237;SDS011;13185;50.872;5.306;2023-07-20T00:04:10;4.80;;;2.20;;
25237;SDS011;13185;50.872;5.306;2023-07-20T00:06:36;6.97;;;2.30;;
25237;SDS011;13185;50.872;5.306;2023-07-20T00:09:08;3.88;;;2.25;;
25237;SDS011;13185;50.872;5.306;2023-07-20T00:11:37;4.03;;;2.28;;
25237;SDS011;13185;50.872;5.306;2023-07-20T00:14:06;4.63;;;2.38;;
25237;SDS011;13185;50.872;5.306;2023-07-20T00:16:32;4.88;;;2.28;;
25237;SDS011;13185;50.872;5.306;2023-07-20T00:18:58;5.63;;;2.47;;
25237;SDS011;13185;50.872;5.306;2023-07-20T00:21:23;5.88;;;2.30;;
25237;SDS011;13185;50.872;5.306;2023-07-20T00:23:49;3.33;;;2.58;;
25237;SDS011;13185;50.872;5.306;2023-07-20T00:26:15;4.65;;;2.33;;
25237;SDS011;13185;50.872;5.306;2023-07-20T00:28:40;5.07;;;2.22;;
25237;SDS011;13185;50.872;5.306;2023-07-20T00:31:06;6.55;;;2.55;;
25237;SDS011;13185;50.872;5.306;2023-07-20T00:33:32;3.28;;;1.98;;
25237;SDS011;13185;50.872;5.306;2023-07-20T00:35:58;5.55;;;2.15;;
25237;SDS011;13185;50.872;5.306;2023-07-20T00:38:23;4.57;;;2.30;;
25237;SDS011;13185;50.872;5.306;2023-07-20T00:40:49;3.38;;;2.13;;
25237;SDS011;13185;50.872;5.306;2023-07-20T00:43:16;5.53;;;2.50;;
25237;SDS011;13185;50.872;5.306;2023-07-20T00:45:42;3.85;;;2.45;;
25237;SDS011;13185;50.872;5.306;2023-07-20T00:48:09;4.75;;;1.98;;
25237;SDS011;13185;50.872;5.306;2023-07-20T00:50:35;5.60;;;2.00;;
25237;SDS011;13185;50.872;5.306;2023-07-20T00:53:01;4.53;;;2.38;;
25237;SDS011;13185;50.872;5.306;2023-07-20T00:55:31;5.50;;;2.45;;
25237;SDS011;13185;50.872;5.306;2023-07-20T00:57:57;5.20;;;1.88;;
25237;SDS011;13185;50.872;5.306;2023-07-20T01:00:24;4.68;;;2.45;;
25237;SDS011;13185;50.872;5.306;2023-07-20T01:02:50;4.50;;;1.95;;
25237;SDS011;13185;50.872;5.306;2023-07-20T01:05:16;2.85;;;2.20;;
25237;SDS011;13185;50.872;5.306;2023-07-20T01:07:57;11.45;;;2.17;;
25237;SDS011;13185;50.872;5.306;2023-07-20T01:10:28;4.18;;;1.85;;
25237;SDS011;13185;50.872;5.306;2023-07-20T01:12:58;5.72;;;1.73;;
25237;SDS011;13185;50.872;5.306;2023-07-20T01:15:26;5.78;;;1.90;;
25237;SDS011;13185;50.872;5.306;2023-07-20T01:17:52;7.47;;;2.13;;
25237;SDS011;13185;50.872;5.306;2023-07-20T01:20:18;5.60;;;1.80;;
25237;SDS011;13185;50.872;5.306;2023-07-20T01:33:55;4.60;;;1.92;;
25237;SDS011;13185;50.872;5.306;2023-07-20T01:36:26;7.53;;;2.17;;
25237;SDS011;13185;50.872;5.306;2023-07-20T01:38:56;6.30;;;1.93;;
25237;SDS011;13185;50.872;5.306;2023-07-20T01:41:22;7.50;;;2.40;;
25237;SDS011;13185;50.872;5.306;2023-07-20T01:43:48;4.15;;;1.90;;
25237;SDS011;13185;50.872;5.306;2023-07-20T01:46:14;6.97;;;2.50;;
25237;SDS011;13185;50.872;5.306;2023-07-20T01:48:40;5.13;;;1.90;;
25237;SDS011;13185;50.872;5.306;2023-07-20T01:51:07;10.18;;;2.53;;
25237;SDS011;13185;50.872;5.306;2023-07-20T01:53:33;3.10;;;1.60;;
25237;SDS011;13185;50.872;5.306;2023-07-20T01:55:58;4.80;;;1.55;;
25237;SDS011;13185;50.872;5.306;2023-07-20T01:58:23;4.55;;;1.80;;
25237;SDS011;13185;50.872;5.306;2023-07-20T02:00:49;5.38;;;2.05;;
25237;SDS011;13185;50.872;5.306;2023-07-20T02:03:15;4.32;;;2.20;;
25237;SDS011;13185;50.872;5.306;2023-07-20T02:05:44;4.47;;;2.13;;
25237;SDS011;13185;50.872;5.306;2023-07-20T02:08:10;4.18;;;1.95;;
25237;SDS011;13185;50.872;5.306;2023-07-20T02:10:35;5.03;;;2.30;;
25237;SDS011;13185;50.872;5.306;2023-07-20T02:13:01;4.25;;;1.80;;
25237;SDS011;13185;50.872;5.306;2023-07-20T02:15:27;5.93;;;2.33;;
25237;SDS011;13185;50.872;5.306;2023-07-20T02:17:53;3.97;;;2.05;;
25237;SDS011;13185;50.872;5.306;2023-07-20T02:20:19;4.30;;;1.95;;
25237;SDS011;13185;50.872;5.306;2023-07-20T02:22:45;4.72;;;2.00;;
25237;SDS011;13185;50.872;5.306;2023-07-20T02:25:11;9.35;;;2.50;;
25237;SDS011;13185;50.872;5.306;2023-07-20T02:27:37;5.32;;;1.90;;
25237;SDS011;13185;50.872;5.306;2023-07-20T02:30:04;4.60;;;1.70;;
25237;SDS011;13185;50.872;5.306;2023-07-20T02:32:30;5.97;;;2.15;;
25237;SDS011;13185;50.872;5.306;2023-07-20T02:34:57;7.20;;;2.33;;
25237;SDS011;13185;50.872;5.306;2023-07-20T02:37:23;5.53;;;2.25;;
25237;SDS011;13185;50.872;5.306;2023-07-20T02:39:48;5.38;;;2.35;;
25237;SDS011;13185;50.872;5.306;2023-07-20T02:42:13;4.47;;;2.42;;
25237;SDS011;13185;50.872;5.306;2023-07-20T02:44:40;4.93;;;2.33;;
25237;SDS011;13185;50.872;5.306;2023-07-20T02:47:06;8.18;;;2.85;;
25237;SDS011;13185;50.872;5.306;2023-07-20T02:49:31;6.68;;;2.40;;
25237;SDS011;13185;50.872;5.306;2023-07-20T02:51:57;6.60;;;2.55;;
25237;SDS011;13185;50.872;5.306;2023-07-20T02:54:22;6.50;;;2.60;;
25237;SDS011;13185;50.872;5.306;2023-07-20T02:56:48;8.00;;;2.97;;
25237;SDS011;13185;50.872;5.306;2023-07-20T02:59:14;5.47;;;2.00;;
25237;SDS011;13185;50.872;5.306;2023-07-20T03:01:40;6.75;;;2.97;;
25237;SDS011;13185;50.872;5.306;2023-07-20T03:04:07;6.38;;;2.10;;
25237;SDS011;13185;50.872;5.306;2023-07-20T03:06:35;5.20;;;2.40;;
25237;SDS011;13185;50.872;5.306;2023-07-20T03:09:01;11.88;;;2.42;;
25237;SDS011;13185;50.872;5.306;2023-07-20T03:11:28;6.43;;;2.60;;
25237;SDS011;13185;50.872;5.306;2023-07-20T03:13:54;8.07;;;2.80;;
25237;SDS011;13185;50.872;5.306;2023-07-20T03:16:21;8.00;;;2.42;;
25237;SDS011;13185;50.872;5.306;2023-07-20T03:18:47;9.55;;;3.28;;
25237;SDS011;13185;50.872;5.306;2023-07-20T03:21:12;5.60;;;2.33;;
25237;SDS011;13185;50.872;5.306;2023-07-20T03:23:41;4.70;;;2.05;;
25237;SDS011;13185;50.872;5.306;2023-07-20T03:26:08;4.70;;;2.35;;
25237;SDS011;13185;50.872;5.306;2023-07-20T03:28:38;4.38;;;2.45;;
25237;SDS011;13185;50.872;5.306;2023-07-20T03:31:04;7.72;;;2.78;;
25237;SDS011;13185;50.872;5.306;2023-07-20T03:33:33;7.68;;;2.70;;
25237;SDS011;13185;50.872;5.306;2023-07-20T03:36:00;8.45;;;2.53;;
25237;SDS011;13185;50.872;5.306;2023-07-20T03:38:26;6.47;;;2.40;;
25237;SDS011;13185;50.872;5.306;2023-07-20T03:40:54;5.20;;;2.45;;
25237;SDS011;13185;50.872;5.306;2023-07-20T03:43:25;8.45;;;3.00;;
25237;SDS011;13185;50.872;5.306;2023-07-20T03:45:51;10.10;;;3.00;;
25237;SDS011;13185;50.872;5.306;2023-07-20T03:48:18;7.43;;;2.65;;
25237;SDS011;13185;50.872;5.306;2023-07-20T03:50:49;7.68;;;2.50;;
25237;SDS011;13185;50.872;5.306;2023-07-20T03:53:16;7.40;;;3.30;;
25237;SDS011;13185;50.872;5.306;2023-07-20T03:55:45;10.25;;;2.67;;
25237;SDS011;13185;50.872;5.306;2023-07-20T03:58:12;6.68;;;2.88;;
25237;SDS011;13185;50.872;5.306;2023-07-20T04:00:38;6.80;;;2.63;;
25237;SDS011;13185;50.872;5.306;2023-07-20T04:03:04;6.75;;;2.85;;
25237;SDS011;13185;50.872;5.306;2023-07-20T04:05:30;10.57;;;2.75;;
25237;SDS011;13185;50.872;5.306;2023-07-20T04:07:55;5.70;;;2.78;;
25237;SDS011;13185;50.872;5.306;2023-07-20T04:10:21;9.02;;;3.10;;
25237;SDS011;13185;50.872;5.306;2023-07-20T04:13:05;11.43;;;3.05;;
25237;SDS011;13185;50.872;5.306;2023-07-20T04:15:31;10.48;;;3.50;;
25237;SDS011;13185;50.872;5.306;2023-07-20T04:17:56;10.68;;;4.40;;
25237;SDS011;13185;50.872;5.306;2023-07-20T04:20:25;5.35;;;3.55;;
25237;SDS011;13185;50.872;5.306;2023-07-20T04:22:50;9.02;;;4.22;;
25237;SDS011;13185;50.872;5.306;2023-07-20T04:25:17;11.05;;;4.28;;
25237;SDS011;13185;50.872;5.306;2023-07-20T04:27:43;8.25;;;3.58;;
25237;SDS011;13185;50.872;5.306;2023-07-20T04:30:09;9.25;;;3.78;;
25237;SDS011;13185;50.872;5.306;2023-07-20T04:32:37;12.38;;;5.00;;
25237;SDS011;13185;50.872;5.306;2023-07-20T04:35:06;10.73;;;4.90;;
25237;SDS011;13185;50.872;5.306;2023-07-20T04:37:38;11.65;;;4.70;;
25237;SDS011;13185;50.872;5.306;2023-07-20T04:40:06;10.02;;;5.00;;
25237;SDS011;13185;50.872;5.306;2023-07-20T04:42:33;11.73;;;5.90;;
25237;SDS011;13185;50.872;5.306;2023-07-20T04:44:58;9.73;;;5.43;;
25237;SDS011;13185;50.872;5.306;2023-07-20T04:47:24;11.48;;;5.50;;
25237;SDS011;13185;50.872;5.306;2023-07-20T04:49:50;12.60;;;5.97;;
25237;SDS011;13185;50.872;5.306;2023-07-20T04:52:16;10.88;;;6.38;;
25237;SDS011;13185;50.872;5.306;2023-07-20T04:54:41;11.40;;;5.38;;
25237;SDS011;13185;50.872;5.306;2023-07-20T04:57:10;14.55;;;5.97;;
25237;SDS011;13185;50.872;5.306;2023-07-20T04:59:38;12.00;;;5.30;;
25237;SDS011;13185;50.872;5.306;2023-07-20T05:02:04;10.27;;;6.25;;
25237;SDS011;13185;50.872;5.306;2023-07-20T05:04:30;9.38;;;6.13;;
25237;SDS011;13185;50.872;5.306;2023-07-20T05:06:55;11.52;;;6.68;;
25237;SDS011;13185;50.872;5.306;2023-07-20T05:09:21;11.43;;;5.75;;
25237;SDS011;13185;50.872;5.306;2023-07-20T05:11:48;11.15;;;6.80;;
25237;SDS011;13185;50.872;5.306;2023-07-20T05:14:14;11.18;;;6.40;;
25237;SDS011;13185;50.872;5.306;2023-07-20T05:16:40;12.25;;;6.18;;
25237;SDS011;13185;50.872;5.306;2023-07-20T05:19:06;8.75;;;5.63;;
25237;SDS011;13185;50.872;5.306;2023-07-20T05:21:32;11.88;;;6.90;;
25237;SDS011;13185;50.872;5.306;2023-07-20T05:23:57;11.25;;;6.95;;
25237;SDS011;13185;50.872;5.306;2023-07-20T05:26:23;11.35;;;5.97;;
25237;SDS011;13185;50.872;5.306;2023-07-20T05:28:48;14.05;;;6.05;;
25237;SDS011;13185;50.872;5.306;2023-07-20T05:31:14;12.38;;;7.28;;
25237;SDS011;13185;50.872;5.306;2023-07-20T05:33:39;11.05;;;6.28;;
25237;SDS011;13185;50.872;5.306;2023-07-20T05:36:05;13.45;;;6.78;;
25237;SDS011;13185;50.872;5.306;2023-07-20T05:38:30;10.13;;;5.63;;
25237;SDS011;13185;50.872;5.306;2023-07-20T05:40:59;14.85;;;6.10;;
25237;SDS011;13185;50.872;5.306;2023-07-20T05:43:25;14.00;;;6.22;;
25237;SDS011;13185;50.872;5.306;2023-07-20T05:45:51;10.98;;;6.28;;
25237;SDS011;13185;50.872;5.306;2023-07-20T05:48:16;10.50;;;6.68;;
25237;SDS011;13185;50.872;5.306;2023-07-20T05:50:42;10.10;;;6.57;;
25237;SDS011;13185;50.872;5.306;2023-07-20T05:53:08;11.68;;;7.25;;
25237;SDS011;13185;50.872;5.306;2023-07-20T05:55:34;13.80;;;8.05;;
25237;SDS011;13185;50.872;5.306;2023-07-20T05:57:59;13.88;;;8.50;;
25237;SDS011;13185;50.872;5.306;2023-07-20T06:00:25;12.27;;;8.18;;
25237;SDS011;13185;50.872;5.306;2023-07-20T06:02:54;13.55;;;7.82;;
25237;SDS011;13185;50.872;5.306;2023-07-20T06:05:20;10.75;;;7.45;;
25237;SDS011;13185;50.872;5.306;2023-07-20T06:07:46;12.25;;;8.30;;
25237;SDS011;13185;50.872;5.306;2023-07-20T06:10:12;12.63;;;8.85;;
25237;SDS011;13185;50.872;5.306;2023-07-20T06:12:37;9.98;;;7.85;;
25237;SDS011;13185;50.872;5.306;2023-07-20T06:15:04;11.48;;;8.52;;
25237;SDS011;13185;50.872;5.306;2023-07-20T06:17:30;11.10;;;7.97;;
25237;SDS011;13185;50.872;5.306;2023-07-20T06:19:56;12.90;;;8.95;;
25237;SDS011;13185;50.872;5.306;2023-07-20T06:22:21;10.30;;;8.68;;
25237;SDS011;13185;50.872;5.306;2023-07-20T06:24:46;14.13;;;8.95;;
25237;SDS011;13185;50.872;5.306;2023-07-20T06:27:12;13.60;;;8.82;;
25237;SDS011;13185;50.872;5.306;2023-07-20T06:32:03;14.77;;;9.63;;
25237;SDS011;13185;50.872;5.306;2023-07-20T06:34:29;11.27;;;8.68;;
25237;SDS011;13185;50.872;5.306;2023-07-20T06:36:55;12.35;;;8.48;;
25237;SDS011;13185;50.872;5.306;2023-07-20T06:39:20;11.15;;;8.55;;
25237;SDS011;13185;50.872;5.306;2023-07-20T06:41:47;10.70;;;7.90;;
25237;SDS011;13185;50.872;5.306;2023-07-20T06:44:13;9.50;;;8.43;;
25237;SDS011;13185;50.872;5.306;2023-07-20T06:46:38;13.38;;;8.25;;
25237;SDS011;13185;50.872;5.306;2023-07-20T06:49:05;9.95;;;7.60;;
25237;SDS011;13185;50.872;5.306;2023-07-20T06:51:31;13.98;;;8.27;;
25237;SDS011;13185;50.872;5.306;2023-07-20T06:53:57;11.18;;;7.63;;
25237;SDS011;13185;50.872;5.306;2023-07-20T06:56:22;10.40;;;6.75;;
25237;SDS011;13185;50.872;5.306;2023-07-20T06:58:48;12.88;;;8.68;;
25237;SDS011;13185;50.872;5.306;2023-07-20T07:01:14;11.93;;;8.00;;
25237;SDS011;13185;50.872;5.306;2023-07-20T07:03:40;11.80;;;7.97;;
25237;SDS011;13185;50.872;5.306;2023-07-20T07:06:05;11.38;;;8.00;;
25237;SDS011;13185;50.872;5.306;2023-07-20T07:08:31;9.05;;;6.93;;
25237;SDS011;13185;50.872;5.306;2023-07-20T07:10:57;8.05;;;6.20;;
25237;SDS011;13185;50.872;5.306;2023-07-20T07:13:22;10.85;;;7.28;;
25237;SDS011;13185;50.872;5.306;2023-07-20T07:15:48;8.82;;;6.68;;
25237;SDS011;13185;50.872;5.306;2023-07-20T07:18:13;8.35;;;5.93;;
25237;SDS011;13185;50.872;5.306;2023-07-20T07:20:39;10.20;;;7.43;;
25237;SDS011;13185;50.872;5.306;2023-07-20T07:23:04;9.10;;;6.63;;
25237;SDS011;13185;50.872;5.306;2023-07-20T07:25:30;9.68;;;6.25;;
25237;SDS011;13185;50.872;5.306;2023-07-20T07:27:57;9.63;;;6.07;;
25237;SDS011;13185;50.872;5.306;2023-07-20T07:30:22;8.50;;;6.43;;
25237;SDS011;13185;50.872;5.306;2023-07-20T07:32:48;11.88;;;6.15;;
25237;SDS011;13185;50.872;5.306;2023-07-20T07:35:14;7.57;;;6.05;;
25237;SDS011;13185;50.872;5.306;2023-07-20T07:37:40;6.32;;;5.22;;
25237;SDS011;13185;50.872;5.306;2023-07-20T07:40:06;10.88;;;5.88;;
25237;SDS011;13185;50.872;5.306;2023-07-20T07:42:33;7.45;;;4.85;;
25237;SDS011;13185;50.872;5.306;2023-07-20T07:44:58;5.32;;;4.25;;
25237;SDS011;13185;50.872;5.306;2023-07-20T07:47:23;8.35;;;5.03;;
25237;SDS011;13185;50.872;5.306;2023-07-20T07:49:49;9.48;;;5.50;;
25237;SDS011;13185;50.872;5.306;2023-07-20T07:52:15;8.13;;;4.72;;
25237;SDS011;13185;50.872;5.306;2023-07-20T07:54:40;9.77;;;5.95;;
25237;SDS011;13185;50.872;5.306;2023-07-20T07:57:06;10.93;;;6.00;;
25237;SDS011;13185;50.872;5.306;2023-07-20T07:59:31;6.45;;;5.53;;
25237;SDS011;13185;50.872;5.306;2023-07-20T08:02:01;8.55;;;5.03;;
25237;SDS011;13185;50.872;5.306;2023-07-20T08:04:27;8.25;;;5.25;;
25237;SDS011;13185;50.872;5.306;2023-07-20T08:06:52;7.38;;;4.82;;
25237;SDS011;13185;50.872;5.306;2023-07-20T08:09:18;6.22;;;4.50;;
25237;SDS011;13185;50.872;5.306;2023-07-20T08:11:43;7.93;;;4.85;;
25237;SDS011;13185;50.872;5.306;2023-07-20T08:14:09;8.05;;;5.50;;
25237;SDS011;13185;50.872;5.306;2023-07-20T08:16:34;7.03;;;4.80;;
25237;SDS011;13185;50.872;5.306;2023-07-20T08:19:00;9.20;;;6.07;;
25237;SDS011;13185;50.872;5.306;2023-07-20T08:21:25;6.32;;;3.97;;
25237;SDS011;13185;50.872;5.306;2023-07-20T08:23:51;6.50;;;4.25;;
25237;SDS011;13185;50.872;5.306;2023-07-20T08:26:16;5.00;;;3.75;;
25237;SDS011;13185;50.872;5.306;2023-07-20T08:28:43;6.20;;;3.83;;
25237;SDS011;13185;50.872;5.306;2023-07-20T08:31:10;101.43;;;10.82;;
25237;SDS011;13185;50.872;5.306;2023-07-20T08:33:35;19.90;;;5.07;;
25237;SDS011;13185;50.872;5.306;2023-07-20T08:36:01;20.17;;;4.60;;
25237;SDS011;13185;50.872;5.306;2023-07-20T08:38:27;6.57;;;4.57;;
25237;SDS011;13185;50.872;5.306;2023-07-20T08:40:52;4.85;;;4.05;;
25237;SDS011;13185;50.872;5.306;2023-07-20T08:43:22;8.80;;;3.58;;
25237;SDS011;13185;50.872;5.306;2023-07-20T08:45:51;5.97;;;3.85;;
25237;SDS011;13185;50.872;5.306;2023-07-20T08:48:20;6.82;;;3.92;;
25237;SDS011;13185;50.872;5.306;2023-07-20T08:50:46;6.43;;;3.20;;
25237;SDS011;13185;50.872;5.306;2023-07-20T08:53:14;7.15;;;3.17;;
25237;SDS011;13185;50.872;5.306;2023-07-20T08:55:42;5.55;;;3.25;;
25237;SDS011;13185;50.872;5.306;2023-07-20T08:58:10;5.78;;;3.28;;
25237;SDS011;13185;50.872;5.306;2023-07-20T09:00:37;5.32;;;3.15;;
25237;SDS011;13185;50.872;5.306;2023-07-20T09:03:03;4.55;;;3.28;;
25237;SDS011;13185;50.872;5.306;2023-07-20T09:05:29;6.43;;;3.42;;
25237;SDS011;13185;50.872;5.306;2023-07-20T09:07:55;3.65;;;2.20;;
25237;SDS011;13185;50.872;5.306;2023-07-20T09:10:21;4.60;;;2.50;;
25237;SDS011;13185;50.872;5.306;2023-07-20T09:12:47;3.70;;;3.13;;
25237;SDS011;13185;50.872;5.306;2023-07-20T09:15:12;4.28;;;3.10;;
25237;SDS011;13185;50.872;5.306;2023-07-20T09:17:38;4.15;;;2.28;;
25237;SDS011;13185;50.872;5.306;2023-07-20T09:20:05;3.10;;;2.10;;
25237;SDS011;13185;50.872;5.306;2023-07-20T09:22:36;4.00;;;2.20;;
25237;SDS011;13185;50.872;5.306;2023-07-20T09:25:14;3.90;;;2.22;;
25237;SDS011;13185;50.872;5.306;2023-07-20T09:27:44;3.00;;;2.00;;
25237;SDS011;13185;50.872;5.306;2023-07-20T09:30:11;3.65;;;2.00;;
25237;SDS011;13185;50.872;5.306;2023-07-20T09:32:43;3.95;;;2.10;;
25237;SDS011;13185;50.872;5.306;2023-07-20T09:35:13;2.53;;;1.60;;
25237;SDS011;13185;50.872;5.306;2023-07-20T09:37:53;3.10;;;1.30;;
25237;SDS011;13185;50.872;5.306;2023-07-20T09:40:22;3.25;;;1.42;;
25237;SDS011;13185;50.872;5.306;2023-07-20T09:42:49;232.23;;;20.17;;
25237;SDS011;13185;50.872;5.306;2023-07-20T09:45:19;44.65;;;5.28;;
25237;SDS011;13185;50.872;5.306;2023-07-20T09:47:44;5.63;;;1.70;;
25237;SDS011;13185;50.872;5.306;2023-07-20T09:50:10;4.15;;;2.00;;
25237;SDS011;13185;50.872;5.306;2023-07-20T09:52:39;6.28;;;2.22;;
25237;SDS011;13185;50.872;5.306;2023-07-20T09:55:14;7.68;;;1.85;;
25237;SDS011;13185;50.872;5.306;2023-07-20T09:57:40;3.45;;;1.75;;
25237;SDS011;13185;50.872;5.306;2023-07-20T10:00:06;3.42;;;1.50;;
25237;SDS011;13185;50.872;5.306;2023-07-20T10:02:40;2.95;;;1.77;;
25237;SDS011;13185;50.872;5.306;2023-07-20T10:05:08;2.80;;;1.08;;
25237;SDS011;13185;50.872;5.306;2023-07-20T10:07:35;0.90;;;0.90;;
25237;SDS011;13185;50.872;5.306;2023-07-20T10:10:05;1.65;;;1.00;;
25237;SDS011;13185;50.872;5.306;2023-07-20T10:12:32;2.38;;;1.15;;
25237;SDS011;13185;50.872;5.306;2023-07-20T10:15:03;2.33;;;1.10;;
25237;SDS011;13185;50.872;5.306;2023-07-20T10:17:40;2.40;;;1.40;;
25237;SDS011;13185;50.872;5.306;2023-07-20T10:20:15;2.63;;;1.20;;
25237;SDS011;13185;50.872;5.306;2023-07-20T10:22:44;1.92;;;1.20;;
25237;SDS011;13185;50.872;5.306;2023-07-20T10:25:12;2.20;;;0.93;;
25237;SDS011;13185;50.872;5.306;2023-07-20T10:27:39;3.70;;;1.23;;
25237;SDS011;13185;50.872;5.306;2023-07-20T10:30:05;1.15;;;0.80;;
25237;SDS011;13185;50.872;5.306;2023-07-20T10:32:30;1.77;;;0.80;;
25237;SDS011;13185;50.872;5.306;2023-07-20T10:34:57;3.00;;;1.00;;
25237;SDS011;13185;50.872;5.306;2023-07-20T10:40:30;4.22;;;0.90;;
25237;SDS011;13185;50.872;5.306;2023-07-20T10:43:03;1.75;;;0.75;;
25237;SDS011;13185;50.872;5.306;2023-07-20T10:48:25;1.15;;;0.60;;
25237;SDS011;13185;50.872;5.306;2023-07-20T10:53:39;0.88;;;0.60;;
25237;SDS011;13185;50.872;5.306;2023-07-20T10:56:12;2.55;;;0.57;;
25237;SDS011;13185;50.872;5.306;2023-07-20T10:58:39;1.80;;;0.77;;
25237;SDS011;13185;50.872;5.306;2023-07-20T11:01:06;1.52;;;0.70;;
25237;SDS011;13185;50.872;5.306;2023-07-20T11:03:37;0.70;;;0.40;;
25237;SDS011;13185;50.872;5.306;2023-07-20T11:08:56;1.63;;;0.80;;
25237;SDS011;13185;50.872;5.306;2023-07-20T11:11:33;1.77;;;0.90;;
25237;SDS011;13185;50.872;5.306;2023-07-20T11:14:00;0.70;;;0.55;;
25237;SDS011;13185;50.872;5.306;2023-07-20T11:16:34;1.55;;;0.68;;
25237;SDS011;13185;50.872;5.306;2023-07-20T11:19:13;0.55;;;0.55;;
25237;SDS011;13185;50.872;5.306;2023-07-20T11:21:43;1.02;;;0.70;;
25237;SDS011;13185;50.872;5.306;2023-07-20T11:24:10;3.47;;;0.77;;
25237;SDS011;13185;50.872;5.306;2023-07-20T11:26:45;2.15;;;0.50;;
25237;SDS011;13185;50.872;5.306;2023-07-20T11:29:12;2.72;;;0.60;;
25237;SDS011;13185;50.872;5.306;2023-07-20T11:31:38;3.45;;;0.88;;
25237;SDS011;13185;50.872;5.306;2023-07-20T11:34:05;0.73;;;0.60;;
25237;SDS011;13185;50.872;5.306;2023-07-20T11:36:33;1.52;;;0.80;;
25237;SDS011;13185;50.872;5.306;2023-07-20T11:38:59;0.50;;;0.40;;
25237;SDS011;13185;50.872;5.306;2023-07-20T11:41:25;2.75;;;0.85;;
25237;SDS011;13185;50.872;5.306;2023-07-20T11:43:52;6.45;;;1.35;;
25237;SDS011;13185;50.872;5.306;2023-07-20T11:46:17;5.05;;;0.68;;
25237;SDS011;13185;50.872;5.306;2023-07-20T11:48:43;0.75;;;0.60;;
25237;SDS011;13185;50.872;5.306;2023-07-20T11:51:15;1.58;;;0.90;;
25237;SDS011;13185;50.872;5.306;2023-07-20T11:53:43;2.05;;;0.70;;
25237;SDS011;13185;50.872;5.306;2023-07-20T11:56:11;0.98;;;0.55;;
25237;SDS011;13185;50.872;5.306;2023-07-20T11:58:41;0.80;;;0.70;;
25237;SDS011;13185;50.872;5.306;2023-07-20T12:01:07;4.15;;;0.85;;
25237;SDS011;13185;50.872;5.306;2023-07-20T12:03:32;0.93;;;0.50;;
25237;SDS011;13185;50.872;5.306;2023-07-20T12:06:05;1.90;;;0.65;;
25237;SDS011;13185;50.872;5.306;2023-07-20T12:08:32;1.25;;;0.70;;
25237;SDS011;13185;50.872;5.306;2023-07-20T12:10:58;1.80;;;0.65;;
25237;SDS011;13185;50.872;5.306;2023-07-20T12:13:23;2.60;;;0.88;;
25237;SDS011;13185;50.872;5.306;2023-07-20T12:15:52;1.15;;;0.57;;
25237;SDS011;13185;50.872;5.306;2023-07-20T12:18:22;0.98;;;0.70;;
25237;SDS011;13185;50.872;5.306;2023-07-20T12:20:48;0.77;;;0.50;;
25237;SDS011;13185;50.872;5.306;2023-07-20T12:23:13;2.17;;;0.77;;
25237;SDS011;13185;50.872;5.306;2023-07-20T12:25:40;1.27;;;0.80;;
25237;SDS011;13185;50.872;5.306;2023-07-20T12:28:08;2.55;;;0.80;;
25237;SDS011;13185;50.872;5.306;2023-07-20T12:30:41;1.55;;;0.65;;
25237;SDS011;13185;50.872;5.306;2023-07-20T12:33:07;1.30;;;0.70;;
25237;SDS011;13185;50.872;5.306;2023-07-20T12:35:33;1.13;;;0.57;;
25237;SDS011;13185;50.872;5.306;2023-07-20T12:37:59;1.05;;;0.25;;
25237;SDS011;13185;50.872;5.306;2023-07-20T12:40:25;2.05;;;0.40;;
25237;SDS011;13185;50.872;5.306;2023-07-20T12:42:51;1.25;;;0.70;;
25237;SDS011;13185;50.872;5.306;2023-07-20T12:45:16;1.25;;;0.60;;
25237;SDS011;13185;50.872;5.306;2023-07-20T12:47:42;1.10;;;0.50;;
25237;SDS011;13185;50.872;5.306;2023-07-20T12:50:11;1.15;;;0.40;;
25237;SDS011;13185;50.872;5.306;2023-07-20T12:52:38;1.45;;;0.40;;
25237;SDS011;13185;50.872;5.306;2023-07-20T12:55:04;2.00;;;0.82;;
25237;SDS011;13185;50.872;5.306;2023-07-20T12:57:31;2.38;;;0.65;;
25237;SDS011;13185;50.872;5.306;2023-07-20T12:59:56;2.13;;;0.60;;
25237;SDS011;13185;50.872;5.306;2023-07-20T13:02:22;1.48;;;0.70;;
25237;SDS011;13185;50.872;5.306;2023-07-20T13:04:48;2.72;;;0.50;;
25237;SDS011;13185;50.872;5.306;2023-07-20T13:07:13;1.83;;;0.52;;
25237;SDS011;13185;50.872;5.306;2023-07-20T13:09:39;1.73;;;0.50;;
25237;SDS011;13185;50.872;5.306;2023-07-20T13:12:04;0.80;;;0.40;;
25237;SDS011;13185;50.872;5.306;2023-07-20T13:14:30;0.80;;;0.40;;
25237;SDS011;13185;50.872;5.306;2023-07-20T13:16:56;1.52;;;0.60;;
25237;SDS011;13185;50.872;5.306;2023-07-20T13:19:21;2.45;;;0.30;;
25237;SDS011;13185;50.872;5.306;2023-07-20T13:21:47;0.95;;;0.32;;
25237;SDS011;13185;50.872;5.306;2023-07-20T13:24:12;1.27;;;0.40;;
25237;SDS011;13185;50.872;5.306;2023-07-20T13:26:38;0.75;;;0.30;;
25237;SDS011;13185;50.872;5.306;2023-07-20T13:29:03;1.90;;;0.50;;
25237;SDS011;13185;50.872;5.306;2023-07-20T13:31:29;1.05;;;0.20;;
25237;SDS011;13185;50.872;5.306;2023-07-20T13:33:54;0.68;;;0.32;;
25237;SDS011;13185;50.872;5.306;2023-07-20T13:36:21;1.95;;;0.40;;
25237;SDS011;13185;50.872;5.306;2023-07-20T13:38:47;0.65;;;0.40;;
25237;SDS011;13185;50.872;5.306;2023-07-20T13:41:14;0.47;;;0.22;;
25237;SDS011;13185;50.872;5.306;2023-07-20T13:43:40;0.32;;;0.20;;
25237;SDS011;13185;50.872;5.306;2023-07-20T13:46:05;0.63;;;0.30;;
25237;SDS011;13185;50.872;5.306;2023-07-20T13:48:31;1.10;;;0.32;;
25237;SDS011;13185;50.872;5.306;2023-07-20T13:50:57;1.15;;;0.40;;
25237;SDS011;13185;50.872;5.306;2023-07-20T13:53:22;0.73;;;0.43;;
25237;SDS011;13185;50.872;5.306;2023-07-20T13:55:48;1.23;;;0.50;;
25237;SDS011;13185;50.872;5.306;2023-07-20T13:58:13;1.60;;;0.43;;
25237;SDS011;13185;50.872;5.306;2023-07-20T14:00:39;0.65;;;0.43;;
25237;SDS011;13185;50.872;5.306;2023-07-20T14:03:05;2.25;;;0.77;;
25237;SDS011;13185;50.872;5.306;2023-07-20T14:05:30;2.30;;;0.60;;
25237;SDS011;13185;50.872;5.306;2023-07-20T14:07:56;0.95;;;0.60;;
25237;SDS011;13185;50.872;5.306;2023-07-20T14:10:21;1.05;;;0.57;;
25237;SDS011;13185;50.872;5.306;2023-07-20T14:12:47;1.52;;;0.40;;
25237;SDS011;13185;50.872;5.306;2023-07-20T14:15:15;1.92;;;0.50;;
25237;SDS011;13185;50.872;5.306;2023-07-20T14:17:41;0.88;;;0.40;;
25237;SDS011;13185;50.872;5.306;2023-07-20T14:20:07;1.08;;;0.30;;
25237;SDS011;13185;50.872;5.306;2023-07-20T14:22:33;0.40;;;0.28;;
25237;SDS011;13185;50.872;5.306;2023-07-20T14:24:58;2.22;;;0.30;;
25237;SDS011;13185;50.872;5.306;2023-07-20T14:27:24;2.10;;;0.38;;
25237;SDS011;13185;50.872;5.306;2023-07-20T14:29:50;0.73;;;0.50;;
25237;SDS011;13185;50.872;5.306;2023-07-20T14:32:16;0.75;;;0.30;;
25237;SDS011;13185;50.872;5.306;2023-07-20T14:34:47;0.40;;;0.30;;
25237;SDS011;13185;50.872;5.306;2023-07-20T14:37:29;0.60;;;0.38;;
25237;SDS011;13185;50.872;5.306;2023-07-20T14:40:08;1.42;;;0.28;;
25237;SDS011;13185;50.872;5.306;2023-07-20T14:42:35;0.82;;;0.20;;
25237;SDS011;13185;50.872;5.306;2023-07-20T14:45:00;2.63;;;0.40;;
25237;SDS011;13185;50.872;5.306;2023-07-20T14:47:28;1.35;;;0.30;;
25237;SDS011;13185;50.872;5.306;2023-07-20T14:49:57;0.70;;;0.30;;
25237;SDS011;13185;50.872;5.306;2023-07-20T14:52:23;1.92;;;0.30;;
25237;SDS011;13185;50.872;5.306;2023-07-20T14:54:48;1.27;;;0.40;;
25237;SDS011;13185;50.872;5.306;2023-07-20T14:57:14;0.50;;;0.20;;
25237;SDS011;13185;50.872;5.306;2023-07-20T14:59:39;1.58;;;0.40;;
25237;SDS011;13185;50.872;5.306;2023-07-20T15:02:07;0.80;;;0.47;;
25237;SDS011;13185;50.872;5.306;2023-07-20T15:04:33;0.40;;;0.20;;
25237;SDS011;13185;50.872;5.306;2023-07-20T15:06:59;0.90;;;0.25;;
25237;SDS011;13185;50.872;5.306;2023-07-20T15:09:24;0.82;;;0.30;;